sensor_id;sensor_type;location;lat;lon;timestamp;P1;durP1;ratioP1;P2;durP2;ratioP2
974;SDS011;6115;49.296;10.602;2023-06-26T00:03:35;3.13;;;2.23;;
974;SDS011;6115;49.296;10.602;2023-06-26T00:08:36;3.63;;;3.07;;
974;SDS011;6115;49.296;10.602;2023-06-26T00:13:36;2.63;;;2.43;;
974;SDS011;6115;49.296;10.602;2023-06-26T00:18:37;4.07;;;3.13;;
974;SDS011;6115;49.296;10.602;2023-06-26T00:23:38;4.77;;;3.37;;
974;SDS011;6115;49.296;10.602;2023-06-26T00:28:38;3.33;;;2.97;;
974;SDS011;6115;49.296;10.602;2023-06-26T00:33:39;6.00;;;3.23;;
974;SDS011;6115;49.296;10.602;2023-06-26T00:38:39;3.93;;;2.67;;
974;SDS011;6115;49.296;10.602;2023-06-26T00:43:40;3.93;;;3.13;;
974;SDS011;6115;49.296;10.602;2023-06-26T00:48:41;3.83;;;3.00;;
974;SDS011;6115;49.296;10.602;2023-06-26T00:53:43;4.37;;;3.17;;
974;SDS011;6115;49.296;10.602;2023-06-26T00:58:43;4.50;;;3.17;;
974;SDS011;6115;49.296;10.602;2023-06-26T01:03:45;4.70;;;3.90;;
974;SDS011;6115;49.296;10.602;2023-06-26T01:08:51;7.90;;;4.07;;
974;SDS011;6115;49.296;10.602;2023-06-26T01:13:52;5.03;;;3.90;;
974;SDS011;6115;49.296;10.602;2023-06-26T01:18:55;3.40;;;2.77;;
974;SDS011;6115;49.296;10.602;2023-06-26T01:29:20;5.67;;;3.57;;
974;SDS011;6115;49.296;10.602;2023-06-26T01:34:23;4.50;;;3.30;;
974;SDS011;6115;49.296;10.602;2023-06-26T01:39:24;4.40;;;3.50;;
974;SDS011;6115;49.296;10.602;2023-06-26T01:44:28;5.03;;;3.60;;
974;SDS011;6115;49.296;10.602;2023-06-26T01:49:47;3.30;;;2.70;;
974;SDS011;6115;49.296;10.602;2023-06-26T01:54:57;4.37;;;3.00;;
974;SDS011;6115;49.296;10.602;2023-06-26T02:00:05;4.53;;;3.27;;
974;SDS011;6115;49.296;10.602;2023-06-26T02:05:10;3.27;;;2.97;;
974;SDS011;6115;49.296;10.602;2023-06-26T02:10:11;3.43;;;2.60;;
974;SDS011;6115;49.296;10.602;2023-06-26T02:15:12;4.87;;;3.70;;
974;SDS011;6115;49.296;10.602;2023-06-26T02:20:12;5.03;;;3.37;;
974;SDS011;6115;49.296;10.602;2023-06-26T02:25:14;4.60;;;3.50;;
974;SDS011;6115;49.296;10.602;2023-06-26T02:30:14;4.27;;;3.63;;
974;SDS011;6115;49.296;10.602;2023-06-26T02:35:15;5.53;;;3.97;;
974;SDS011;6115;49.296;10.602;2023-06-26T02:40:15;5.27;;;3.23;;
974;SDS011;6115;49.296;10.602;2023-06-26T02:45:16;3.13;;;2.83;;
974;SDS011;6115;49.296;10.602;2023-06-26T02:50:17;4.67;;;3.10;;
974;SDS011;6115;49.296;10.602;2023-06-26T02:55:18;4.20;;;3.53;;
974;SDS011;6115;49.296;10.602;2023-06-26T03:00:19;5.20;;;3.57;;
974;SDS011;6115;49.296;10.602;2023-06-26T03:05:20;4.10;;;3.30;;
974;SDS011;6115;49.296;10.602;2023-06-26T03:10:21;4.80;;;3.50;;
974;SDS011;6115;49.296;10.602;2023-06-26T03:15:21;4.27;;;3.50;;
974;SDS011;6115;49.296;10.602;2023-06-26T03:20:22;4.47;;;3.60;;
974;SDS011;6115;49.296;10.602;2023-06-26T03:25:22;3.93;;;3.30;;
974;SDS011;6115;49.296;10.602;2023-06-26T03:30:23;5.93;;;3.50;;
974;SDS011;6115;49.296;10.602;2023-06-26T03:35:24;6.90;;;3.63;;
974;SDS011;6115;49.296;10.602;2023-06-26T03:40:24;3.80;;;2.73;;
974;SDS011;6115;49.296;10.602;2023-06-26T03:45:25;3.63;;;3.20;;
974;SDS011;6115;49.296;10.602;2023-06-26T03:50:25;6.67;;;3.20;;
974;SDS011;6115;49.296;10.602;2023-06-26T03:55:26;6.47;;;4.00;;
974;SDS011;6115;49.296;10.602;2023-06-26T04:00:27;5.00;;;3.50;;
974;SDS011;6115;49.296;10.602;2023-06-26T04:05:28;6.20;;;3.47;;
974;SDS011;6115;49.296;10.602;2023-06-26T04:10:29;4.23;;;3.40;;
974;SDS011;6115;49.296;10.602;2023-06-26T04:15:29;5.47;;;3.73;;
974;SDS011;6115;49.296;10.602;2023-06-26T04:20:30;4.93;;;3.80;;
974;SDS011;6115;49.296;10.602;2023-06-26T04:25:30;5.63;;;3.80;;
974;SDS011;6115;49.296;10.602;2023-06-26T04:30:34;8.13;;;4.07;;
974;SDS011;6115;49.296;10.602;2023-06-26T04:35:34;6.57;;;3.93;;
974;SDS011;6115;49.296;10.602;2023-06-26T04:40:36;5.17;;;3.87;;
974;SDS011;6115;49.296;10.602;2023-06-26T04:45:38;5.93;;;4.93;;
974;SDS011;6115;49.296;10.602;2023-06-26T04:50:39;4.00;;;3.60;;
974;SDS011;6115;49.296;10.602;2023-06-26T04:55:39;6.17;;;4.33;;
974;SDS011;6115;49.296;10.602;2023-06-26T05:00:40;7.07;;;4.80;;
974;SDS011;6115;49.296;10.602;2023-06-26T05:05:42;4.20;;;3.23;;
974;SDS011;6115;49.296;10.602;2023-06-26T05:10:44;12.37;;;4.77;;
974;SDS011;6115;49.296;10.602;2023-06-26T05:15:45;5.30;;;4.70;;
974;SDS011;6115;49.296;10.602;2023-06-26T05:20:46;5.57;;;4.10;;
974;SDS011;6115;49.296;10.602;2023-06-26T05:25:47;5.97;;;4.00;;
974;SDS011;6115;49.296;10.602;2023-06-26T05:30:53;5.23;;;4.70;;
974;SDS011;6115;49.296;10.602;2023-06-26T05:35:55;4.93;;;4.07;;
974;SDS011;6115;49.296;10.602;2023-06-26T05:40:55;4.90;;;4.30;;
974;SDS011;6115;49.296;10.602;2023-06-26T05:45:56;5.87;;;4.40;;
974;SDS011;6115;49.296;10.602;2023-06-26T05:51:00;4.90;;;3.90;;
974;SDS011;6115;49.296;10.602;2023-06-26T05:56:01;5.27;;;3.83;;
974;SDS011;6115;49.296;10.602;2023-06-26T06:01:02;5.80;;;4.40;;
974;SDS011;6115;49.296;10.602;2023-06-26T06:06:03;4.30;;;3.50;;
974;SDS011;6115;49.296;10.602;2023-06-26T06:11:03;5.43;;;3.50;;
974;SDS011;6115;49.296;10.602;2023-06-26T06:16:04;4.50;;;3.43;;
974;SDS011;6115;49.296;10.602;2023-06-26T06:21:05;4.07;;;3.20;;
974;SDS011;6115;49.296;10.602;2023-06-26T06:26:05;4.73;;;3.00;;
974;SDS011;6115;49.296;10.602;2023-06-26T06:31:06;5.00;;;3.90;;
974;SDS011;6115;49.296;10.602;2023-06-26T06:36:06;4.30;;;3.37;;
974;SDS011;6115;49.296;10.602;2023-06-26T06:41:07;6.50;;;3.17;;
974;SDS011;6115;49.296;10.602;2023-06-26T06:46:08;5.43;;;3.23;;
974;SDS011;6115;49.296;10.602;2023-06-26T06:51:09;4.57;;;3.40;;
974;SDS011;6115;49.296;10.602;2023-06-26T06:56:10;3.33;;;2.80;;
974;SDS011;6115;49.296;10.602;2023-06-26T07:01:10;3.03;;;2.50;;
974;SDS011;6115;49.296;10.602;2023-06-26T07:06:11;4.33;;;3.50;;
974;SDS011;6115;49.296;10.602;2023-06-26T07:11:12;6.33;;;3.43;;
974;SDS011;6115;49.296;10.602;2023-06-26T07:16:12;4.03;;;3.10;;
974;SDS011;6115;49.296;10.602;2023-06-26T07:21:15;4.37;;;3.57;;
974;SDS011;6115;49.296;10.602;2023-06-26T07:26:15;4.23;;;3.20;;
974;SDS011;6115;49.296;10.602;2023-06-26T07:31:16;4.83;;;3.83;;
974;SDS011;6115;49.296;10.602;2023-06-26T07:36:16;4.90;;;4.00;;
974;SDS011;6115;49.296;10.602;2023-06-26T07:41:17;9.13;;;3.47;;
974;SDS011;6115;49.296;10.602;2023-06-26T07:46:17;4.77;;;3.50;;
974;SDS011;6115;49.296;10.602;2023-06-26T07:51:18;3.40;;;3.10;;
974;SDS011;6115;49.296;10.602;2023-06-26T07:56:19;5.17;;;4.00;;
974;SDS011;6115;49.296;10.602;2023-06-26T08:01:19;6.73;;;3.67;;
974;SDS011;6115;49.296;10.602;2023-06-26T08:06:20;4.60;;;3.50;;
974;SDS011;6115;49.296;10.602;2023-06-26T08:11:21;3.93;;;3.00;;
974;SDS011;6115;49.296;10.602;2023-06-26T08:16:21;4.77;;;3.77;;
974;SDS011;6115;49.296;10.602;2023-06-26T08:21:22;7.30;;;3.60;;
974;SDS011;6115;49.296;10.602;2023-06-26T08:26:22;4.70;;;3.30;;
974;SDS011;6115;49.296;10.602;2023-06-26T08:31:23;5.30;;;3.50;;
974;SDS011;6115;49.296;10.602;2023-06-26T08:36:24;4.90;;;3.80;;
974;SDS011;6115;49.296;10.602;2023-06-26T08:41:24;3.67;;;2.80;;
974;SDS011;6115;49.296;10.602;2023-06-26T08:46:25;3.87;;;3.23;;
974;SDS011;6115;49.296;10.602;2023-06-26T08:51:26;5.77;;;3.30;;
974;SDS011;6115;49.296;10.602;2023-06-26T08:56:31;3.13;;;2.70;;
974;SDS011;6115;49.296;10.602;2023-06-26T09:01:36;4.00;;;2.87;;
974;SDS011;6115;49.296;10.602;2023-06-26T09:06:37;5.10;;;3.17;;
974;SDS011;6115;49.296;10.602;2023-06-26T09:11:39;5.73;;;3.77;;
974;SDS011;6115;49.296;10.602;2023-06-26T09:16:40;4.43;;;3.20;;
974;SDS011;6115;49.296;10.602;2023-06-26T09:21:43;3.53;;;2.90;;
974;SDS011;6115;49.296;10.602;2023-06-26T09:26:44;3.97;;;3.00;;
974;SDS011;6115;49.296;10.602;2023-06-26T09:31:45;4.20;;;3.40;;
974;SDS011;6115;49.296;10.602;2023-06-26T09:36:45;5.70;;;3.10;;
974;SDS011;6115;49.296;10.602;2023-06-26T09:41:47;5.60;;;2.97;;
974;SDS011;6115;49.296;10.602;2023-06-26T09:46:48;3.67;;;3.10;;
974;SDS011;6115;49.296;10.602;2023-06-26T09:51:49;5.17;;;3.30;;
974;SDS011;6115;49.296;10.602;2023-06-26T09:56:50;3.83;;;2.87;;
974;SDS011;6115;49.296;10.602;2023-06-26T10:01:58;4.23;;;3.00;;
974;SDS011;6115;49.296;10.602;2023-06-26T10:07:01;3.23;;;2.67;;
974;SDS011;6115;49.296;10.602;2023-06-26T10:12:10;3.50;;;3.17;;
974;SDS011;6115;49.296;10.602;2023-06-26T10:17:32;3.97;;;3.03;;
974;SDS011;6115;49.296;10.602;2023-06-26T10:22:47;3.53;;;3.10;;
974;SDS011;6115;49.296;10.602;2023-06-26T10:27:50;2.77;;;2.40;;
974;SDS011;6115;49.296;10.602;2023-06-26T10:32:54;2.90;;;2.33;;
974;SDS011;6115;49.296;10.602;2023-06-26T10:38:00;3.43;;;2.70;;
974;SDS011;6115;49.296;10.602;2023-06-26T10:43:06;3.00;;;2.23;;
974;SDS011;6115;49.296;10.602;2023-06-26T10:48:13;2.53;;;2.33;;
974;SDS011;6115;49.296;10.602;2023-06-26T11:03:41;2.57;;;2.37;;
974;SDS011;6115;49.296;10.602;2023-06-26T11:08:52;2.87;;;2.57;;
974;SDS011;6115;49.296;10.602;2023-06-26T11:13:59;3.30;;;2.27;;
974;SDS011;6115;49.296;10.602;2023-06-26T11:19:00;2.93;;;2.50;;
974;SDS011;6115;49.296;10.602;2023-06-26T11:24:01;4.00;;;2.80;;
974;SDS011;6115;49.296;10.602;2023-06-26T11:29:03;2.27;;;1.97;;
974;SDS011;6115;49.296;10.602;2023-06-26T11:34:04;2.40;;;2.20;;
974;SDS011;6115;49.296;10.602;2023-06-26T11:39:11;2.87;;;2.57;;
974;SDS011;6115;49.296;10.602;2023-06-26T11:44:17;2.00;;;1.80;;
974;SDS011;6115;49.296;10.602;2023-06-26T11:49:20;3.23;;;2.70;;
974;SDS011;6115;49.296;10.602;2023-06-26T11:54:26;3.10;;;2.70;;
974;SDS011;6115;49.296;10.602;2023-06-26T11:59:50;3.13;;;2.67;;
974;SDS011;6115;49.296;10.602;2023-06-26T12:04:49;3.70;;;2.80;;
974;SDS011;6115;49.296;10.602;2023-06-26T12:09:50;4.27;;;2.63;;
974;SDS011;6115;49.296;10.602;2023-06-26T12:14:51;3.60;;;2.83;;
974;SDS011;6115;49.296;10.602;2023-06-26T12:19:52;3.57;;;3.20;;
974;SDS011;6115;49.296;10.602;2023-06-26T12:24:56;3.37;;;3.07;;
974;SDS011;6115;49.296;10.602;2023-06-26T12:29:56;3.43;;;3.10;;
974;SDS011;6115;49.296;10.602;2023-06-26T12:34:57;3.70;;;3.10;;
974;SDS011;6115;49.296;10.602;2023-06-26T12:39:58;3.33;;;3.03;;
974;SDS011;6115;49.296;10.602;2023-06-26T12:45:15;3.30;;;3.00;;
974;SDS011;6115;49.296;10.602;2023-06-26T12:50:16;3.50;;;3.20;;
974;SDS011;6115;49.296;10.602;2023-06-26T12:55:17;3.97;;;2.90;;
974;SDS011;6115;49.296;10.602;2023-06-26T13:00:18;4.90;;;3.90;;
974;SDS011;6115;49.296;10.602;2023-06-26T13:05:18;4.00;;;3.60;;
974;SDS011;6115;49.296;10.602;2023-06-26T13:10:19;3.40;;;2.97;;
974;SDS011;6115;49.296;10.602;2023-06-26T13:15:20;4.20;;;3.50;;
974;SDS011;6115;49.296;10.602;2023-06-26T13:20:20;3.93;;;3.40;;
974;SDS011;6115;49.296;10.602;2023-06-26T13:25:21;3.30;;;3.00;;
974;SDS011;6115;49.296;10.602;2023-06-26T13:30:22;3.00;;;2.70;;
974;SDS011;6115;49.296;10.602;2023-06-26T13:35:22;2.80;;;2.60;;
974;SDS011;6115;49.296;10.602;2023-06-26T13:40:23;4.30;;;3.90;;
974;SDS011;6115;49.296;10.602;2023-06-26T13:45:25;12.20;;;3.50;;
974;SDS011;6115;49.296;10.602;2023-06-26T13:50:25;3.63;;;3.07;;
974;SDS011;6115;49.296;10.602;2023-06-26T13:55:26;3.07;;;2.77;;
974;SDS011;6115;49.296;10.602;2023-06-26T14:00:26;3.97;;;3.57;;
974;SDS011;6115;49.296;10.602;2023-06-26T14:05:27;5.70;;;3.40;;
974;SDS011;6115;49.296;10.602;2023-06-26T14:10:27;4.00;;;3.60;;
974;SDS011;6115;49.296;10.602;2023-06-26T14:15:28;4.80;;;4.30;;
974;SDS011;6115;49.296;10.602;2023-06-26T14:20:29;6.60;;;3.50;;
974;SDS011;6115;49.296;10.602;2023-06-26T14:25:32;4.20;;;3.80;;
974;SDS011;6115;49.296;10.602;2023-06-26T14:30:33;4.10;;;3.33;;
974;SDS011;6115;49.296;10.602;2023-06-26T14:35:33;4.77;;;4.37;;
974;SDS011;6115;49.296;10.602;2023-06-26T14:40:35;4.87;;;4.37;;
974;SDS011;6115;49.296;10.602;2023-06-26T14:45:36;5.60;;;4.10;;
974;SDS011;6115;49.296;10.602;2023-06-26T14:50:36;4.10;;;3.70;;
974;SDS011;6115;49.296;10.602;2023-06-26T14:55:37;5.00;;;4.37;;
974;SDS011;6115;49.296;10.602;2023-06-26T15:00:37;7.37;;;4.83;;
974;SDS011;6115;49.296;10.602;2023-06-26T15:05:38;4.40;;;3.40;;
974;SDS011;6115;49.296;10.602;2023-06-26T15:10:38;5.07;;;3.80;;
974;SDS011;6115;49.296;10.602;2023-06-26T15:15:39;4.07;;;3.70;;
974;SDS011;6115;49.296;10.602;2023-06-26T15:20:40;4.23;;;3.50;;
974;SDS011;6115;49.296;10.602;2023-06-26T15:25:40;3.80;;;3.27;;
974;SDS011;6115;49.296;10.602;2023-06-26T15:30:41;6.87;;;3.77;;
974;SDS011;6115;49.296;10.602;2023-06-26T15:35:41;4.80;;;4.27;;
974;SDS011;6115;49.296;10.602;2023-06-26T15:40:42;5.57;;;3.70;;
974;SDS011;6115;49.296;10.602;2023-06-26T15:45:42;5.40;;;3.83;;
974;SDS011;6115;49.296;10.602;2023-06-26T15:50:43;3.60;;;3.00;;
974;SDS011;6115;49.296;10.602;2023-06-26T15:55:45;3.77;;;3.20;;
974;SDS011;6115;49.296;10.602;2023-06-26T16:00:46;4.43;;;2.80;;
974;SDS011;6115;49.296;10.602;2023-06-26T16:05:47;4.53;;;2.90;;
974;SDS011;6115;49.296;10.602;2023-06-26T16:10:47;3.20;;;2.87;;
974;SDS011;6115;49.296;10.602;2023-06-26T16:15:48;2.67;;;2.30;;
974;SDS011;6115;49.296;10.602;2023-06-26T16:20:53;3.30;;;2.70;;
974;SDS011;6115;49.296;10.602;2023-06-26T16:25:53;3.33;;;2.13;;
974;SDS011;6115;49.296;10.602;2023-06-26T16:30:54;2.43;;;2.00;;
974;SDS011;6115;49.296;10.602;2023-06-26T16:35:55;3.20;;;2.13;;
974;SDS011;6115;49.296;10.602;2023-06-26T16:40:55;2.30;;;1.83;;
974;SDS011;6115;49.296;10.602;2023-06-26T16:45:56;1.87;;;1.67;;
974;SDS011;6115;49.296;10.602;2023-06-26T16:50:56;1.80;;;1.20;;
974;SDS011;6115;49.296;10.602;2023-06-26T16:55:57;2.47;;;2.23;;
974;SDS011;6115;49.296;10.602;2023-06-26T17:00:57;3.03;;;1.80;;
974;SDS011;6115;49.296;10.602;2023-06-26T17:05:58;2.90;;;2.10;;
974;SDS011;6115;49.296;10.602;2023-06-26T17:10:59;2.47;;;2.27;;
974;SDS011;6115;49.296;10.602;2023-06-26T17:15:59;3.80;;;2.63;;
974;SDS011;6115;49.296;10.602;2023-06-26T17:21:00;3.40;;;2.20;;
974;SDS011;6115;49.296;10.602;2023-06-26T17:26:00;3.37;;;2.80;;
974;SDS011;6115;49.296;10.602;2023-06-26T17:31:01;2.70;;;2.33;;
974;SDS011;6115;49.296;10.602;2023-06-26T17:36:01;3.30;;;2.70;;
974;SDS011;6115;49.296;10.602;2023-06-26T17:41:04;4.87;;;3.57;;
974;SDS011;6115;49.296;10.602;2023-06-26T17:46:05;4.90;;;3.47;;
974;SDS011;6115;49.296;10.602;2023-06-26T17:51:05;4.53;;;3.40;;
974;SDS011;6115;49.296;10.602;2023-06-26T17:56:06;4.27;;;3.57;;
974;SDS011;6115;49.296;10.602;2023-06-26T18:01:06;4.97;;;3.40;;
974;SDS011;6115;49.296;10.602;2023-06-26T18:06:07;9.10;;;3.80;;
974;SDS011;6115;49.296;10.602;2023-06-26T18:11:08;4.17;;;3.73;;
974;SDS011;6115;49.296;10.602;2023-06-26T18:16:08;3.83;;;3.27;;
974;SDS011;6115;49.296;10.602;2023-06-26T18:21:09;4.00;;;3.07;;
974;SDS011;6115;49.296;10.602;2023-06-26T18:26:09;4.67;;;3.37;;
974;SDS011;6115;49.296;10.602;2023-06-26T18:31:10;4.77;;;3.10;;
974;SDS011;6115;49.296;10.602;2023-06-26T18:36:11;4.70;;;3.53;;
974;SDS011;6115;49.296;10.602;2023-06-26T18:41:14;4.73;;;3.50;;
974;SDS011;6115;49.296;10.602;2023-06-26T18:46:15;3.73;;;3.30;;
974;SDS011;6115;49.296;10.602;2023-06-26T18:51:16;3.57;;;2.87;;
974;SDS011;6115;49.296;10.602;2023-06-26T18:56:16;5.13;;;3.30;;
974;SDS011;6115;49.296;10.602;2023-06-26T19:01:17;3.10;;;2.17;;
974;SDS011;6115;49.296;10.602;2023-06-26T19:06:17;3.93;;;2.43;;
974;SDS011;6115;49.296;10.602;2023-06-26T19:11:19;2.67;;;2.00;;
974;SDS011;6115;49.296;10.602;2023-06-26T19:16:19;3.93;;;2.40;;
974;SDS011;6115;49.296;10.602;2023-06-26T19:21:20;2.37;;;1.90;;
974;SDS011;6115;49.296;10.602;2023-06-26T19:26:20;2.10;;;1.57;;
974;SDS011;6115;49.296;10.602;2023-06-26T19:31:22;4.37;;;1.73;;
974;SDS011;6115;49.296;10.602;2023-06-26T19:36:23;1.80;;;1.57;;
974;SDS011;6115;49.296;10.602;2023-06-26T19:41:24;1.60;;;1.43;;
974;SDS011;6115;49.296;10.602;2023-06-26T19:46:25;1.70;;;1.60;;
974;SDS011;6115;49.296;10.602;2023-06-26T19:51:25;2.90;;;1.53;;
974;SDS011;6115;49.296;10.602;2023-06-26T19:56:26;2.97;;;1.47;;
974;SDS011;6115;49.296;10.602;2023-06-26T20:01:27;4.07;;;1.43;;
974;SDS011;6115;49.296;10.602;2023-06-26T20:06:27;1.70;;;1.20;;
974;SDS011;6115;49.296;10.602;2023-06-26T20:11:28;2.23;;;1.63;;
974;SDS011;6115;49.296;10.602;2023-06-26T20:16:28;2.33;;;1.70;;
974;SDS011;6115;49.296;10.602;2023-06-26T20:21:29;2.10;;;1.40;;
974;SDS011;6115;49.296;10.602;2023-06-26T20:26:29;1.77;;;1.33;;
974;SDS011;6115;49.296;10.602;2023-06-26T20:31:30;1.97;;;1.30;;
974;SDS011;6115;49.296;10.602;2023-06-26T20:36:31;5.93;;;1.73;;
974;SDS011;6115;49.296;10.602;2023-06-26T20:41:32;1.77;;;1.10;;
974;SDS011;6115;49.296;10.602;2023-06-26T20:46:33;2.03;;;1.43;;
974;SDS011;6115;49.296;10.602;2023-06-26T20:51:36;2.03;;;1.10;;
974;SDS011;6115;49.296;10.602;2023-06-26T20:56:38;1.30;;;1.00;;
974;SDS011;6115;49.296;10.602;2023-06-26T21:01:38;1.50;;;1.00;;
974;SDS011;6115;49.296;10.602;2023-06-26T21:06:39;2.40;;;1.27;;
974;SDS011;6115;49.296;10.602;2023-06-26T21:11:39;1.30;;;1.00;;
974;SDS011;6115;49.296;10.602;2023-06-26T21:16:40;1.67;;;1.20;;
974;SDS011;6115;49.296;10.602;2023-06-26T21:21:41;2.43;;;1.57;;
974;SDS011;6115;49.296;10.602;2023-06-26T21:26:41;1.87;;;1.20;;
974;SDS011;6115;49.296;10.602;2023-06-26T21:31:42;2.03;;;1.40;;
974;SDS011;6115;49.296;10.602;2023-06-26T21:36:42;1.83;;;1.60;;
974;SDS011;6115;49.296;10.602;2023-06-26T21:41:43;2.83;;;1.50;;
974;SDS011;6115;49.296;10.602;2023-06-26T21:46:44;2.23;;;1.23;;
974;SDS011;6115;49.296;10.602;2023-06-26T21:51:45;1.40;;;1.00;;
974;SDS011;6115;49.296;10.602;2023-06-26T21:56:45;1.50;;;1.30;;
974;SDS011;6115;49.296;10.602;2023-06-26T22:01:46;8.13;;;1.50;;
974;SDS011;6115;49.296;10.602;2023-06-26T22:06:46;1.60;;;1.10;;
974;SDS011;6115;49.296;10.602;2023-06-26T22:11:47;1.77;;;1.20;;
974;SDS011;6115;49.296;10.602;2023-06-26T22:16:47;1.50;;;1.00;;
974;SDS011;6115;49.296;10.602;2023-06-26T22:21:48;1.83;;;0.90;;
974;SDS011;6115;49.296;10.602;2023-06-26T22:26:48;2.30;;;1.40;;
974;SDS011;6115;49.296;10.602;2023-06-26T22:31:49;1.53;;;1.10;;
974;SDS011;6115;49.296;10.602;2023-06-26T22:36:51;2.27;;;0.90;;
974;SDS011;6115;49.296;10.602;2023-06-26T22:41:51;3.93;;;1.27;;
974;SDS011;6115;49.296;10.602;2023-06-26T22:46:52;2.13;;;1.00;;
974;SDS011;6115;49.296;10.602;2023-06-26T22:51:52;3.00;;;1.20;;
974;SDS011;6115;49.296;10.602;2023-06-26T22:56:53;1.40;;;1.20;;
974;SDS011;6115;49.296;10.602;2023-06-26T23:01:54;1.77;;;1.00;;
974;SDS011;6115;49.296;10.602;2023-06-26T23:06:54;4.20;;;1.10;;
974;SDS011;6115;49.296;10.602;2023-06-26T23:11:59;3.87;;;1.10;;
974;SDS011;6115;49.296;10.602;2023-06-26T23:17:00;1.47;;;1.07;;
974;SDS011;6115;49.296;10.602;2023-06-26T23:22:04;7.23;;;1.30;;
974;SDS011;6115;49.296;10.602;2023-06-26T23:27:09;1.20;;;0.87;;
974;SDS011;6115;49.296;10.602;2023-06-26T23:32:10;2.57;;;1.20;;
974;SDS011;6115;49.296;10.602;2023-06-26T23:37:11;1.33;;;1.07;;
974;SDS011;6115;49.296;10.602;2023-06-26T23:42:12;1.80;;;1.30;;
974;SDS011;6115;49.296;10.602;2023-06-26T23:47:15;1.30;;;1.20;;
974;SDS011;6115;49.296;10.602;2023-06-26T23:52:19;1.20;;;0.90;;
974;SDS011;6115;49.296;10.602;2023-06-26T23:57:19;1.10;;;0.97;;
